createdAt,value
2023-01-08T00:02:24.974Z,99655.75
2023-01-08T00:05:26.647Z,99635.13
2023-01-08T00:08:29.323Z,99624.09
2023-01-08T00:11:31.201Z,99611.75
2023-01-08T00:14:32.793Z,99591.03
2023-01-08T00:17:34.421Z,99586.69
2023-01-08T00:20:36.062Z,99572.09
2023-01-08T00:23:38.222Z,99562.59
2023-01-08T00:26:42.026Z,99551.19
2023-01-08T00:29:46.365Z,99564.41
2023-01-08T00:32:48.063Z,99576.72
2023-01-08T00:35:49.814Z,99580.63
2023-01-08T00:38:51.342Z,99566.50
2023-01-08T00:41:53.036Z,99567.47
2023-01-08T00:44:54.722Z,99558.00
2023-01-08T00:47:56.417Z,99564.72
2023-01-08T00:50:58.053Z,99559.91
2023-01-08T00:54:00.021Z,99579.00
2023-01-08T00:57:01.702Z,99594.47
2023-01-08T01:00:05.191Z,99610.44
2023-01-08T01:03:06.944Z,99596.13
2023-01-08T01:06:10.306Z,99597.41
2023-01-08T01:09:12.123Z,99597.19
2023-01-08T01:12:13.862Z,99589.03
2023-01-08T01:15:18.121Z,99600.50
2023-01-08T01:18:19.660Z,99589.78
2023-01-08T01:21:23.402Z,99595.72
2023-01-08T01:24:25.525Z,99600.06
2023-01-08T01:27:27.463Z,99595.19
2023-01-08T01:30:29.145Z,99586.75
2023-01-08T01:33:30.761Z,99581.50
2023-01-08T01:36:32.605Z,99590.94
2023-01-08T01:39:34.246Z,99582.75
2023-01-08T01:42:42.295Z,99585.44
2023-01-08T01:45:43.926Z,99586.69
2023-01-08T01:48:51.408Z,99594.28
2023-01-08T01:51:56.360Z,99585.88
2023-01-08T01:55:00.868Z,99590.56
2023-01-08T01:58:23.439Z,99590.09
2023-01-08T02:01:26.189Z,99587.94
2023-01-08T02:04:27.854Z,99580.91
2023-01-08T02:07:43.725Z,99577.13
2023-01-08T02:11:02.611Z,99567.63
2023-01-08T02:14:16.855Z,99570.91
2023-01-08T02:17:26.843Z,99566.06
2023-01-08T02:20:40.709Z,99567.56
2023-01-08T02:23:51.366Z,99574.53
2023-01-08T02:26:55.662Z,99580.13
2023-01-08T02:29:58.484Z,99584.44
2023-01-08T02:33:00.084Z,99594.63
2023-01-08T02:36:15.812Z,99584.19
2023-01-08T02:39:48.280Z,99587.59
2023-01-08T02:43:07.443Z,99579.84
2023-01-08T02:46:14.271Z,99576.22
2023-01-08T02:49:20.863Z,99573.09
2023-01-08T02:52:26.779Z,99570.53
2023-01-08T02:55:29.774Z,99574.88
2023-01-08T02:58:34.265Z,99576.38
2023-01-08T03:01:37.045Z,99570.41
2023-01-08T03:04:46.774Z,99566.31
2023-01-08T03:07:49.282Z,99572.16
2023-01-08T03:11:05.013Z,99570.53
2023-01-08T03:14:47.926Z,99566.06
2023-01-08T03:17:54.228Z,99574.47
2023-01-08T03:20:58.651Z,99571.78
2023-01-08T03:24:02.051Z,99569.47
2023-01-08T03:27:08.153Z,99572.22
2023-01-08T03:30:11.923Z,99563.25
2023-01-08T03:33:14.970Z,99555.31
2023-01-08T03:36:22.050Z,99549.53
2023-01-08T03:39:30.738Z,99545.47
2023-01-08T03:42:33.121Z,99547.50
2023-01-08T03:45:38.392Z,99545.16
2023-01-08T03:48:41.373Z,99539.34
2023-01-08T03:51:45.092Z,99532.69
2023-01-08T03:54:46.953Z,99526.69
2023-01-08T03:57:51.979Z,99520.19
2023-01-08T04:00:53.640Z,99524.66
2023-01-08T04:03:55.440Z,99516.50
2023-01-08T04:06:57.278Z,99505.88
2023-01-08T04:09:58.897Z,99513.34
2023-01-08T04:13:00.623Z,99523.13
2023-01-08T04:16:02.391Z,99511.19
2023-01-08T04:19:04.160Z,99508.59
2023-01-08T04:22:05.872Z,99505.34
2023-01-08T04:25:07.809Z,99509.00
2023-01-08T04:28:09.815Z,99499.50
2023-01-08T04:31:11.608Z,99498.81
2023-01-08T04:34:13.422Z,99495.03
2023-01-08T04:37:15.232Z,99490.97
2023-01-08T04:40:16.989Z,99485.81
2023-01-08T04:43:18.619Z,99486.72
2023-01-08T04:46:20.363Z,99478.50
2023-01-08T04:49:22.323Z,99475.75
2023-01-08T04:52:24.026Z,99479.19
2023-01-08T04:55:25.916Z,99469.81
2023-01-08T04:58:27.800Z,99468.88
2023-01-08T05:01:29.816Z,99475.75
2023-01-08T05:04:31.620Z,99471.44
2023-01-08T05:07:33.322Z,99470.88
2023-01-08T05:10:35.056Z,99471.28
2023-01-08T05:13:36.856Z,99474.91
2023-01-08T05:16:38.519Z,99477.75
2023-01-08T05:19:40.396Z,99477.06
2023-01-08T05:22:42.241Z,99475.72
2023-01-08T05:25:43.940Z,99482.75
2023-01-08T05:28:46.258Z,99483.16
2023-01-08T05:31:48.002Z,99482.72
2023-01-08T05:34:50.612Z,99485.41
2023-01-08T05:37:53.183Z,99477.25
2023-01-08T05:40:55.093Z,99487.81
2023-01-08T05:43:56.781Z,99490.50
2023-01-08T05:46:58.542Z,99487.25
2023-01-08T05:50:00.314Z,99488.06
2023-01-08T05:53:02.161Z,99492.53
2023-01-08T05:56:09.173Z,99493.34
2023-01-08T05:59:12.307Z,99505.41
2023-01-08T06:02:14.162Z,99500.00
2023-01-08T06:05:15.947Z,99497.44
2023-01-08T06:08:17.557Z,99507.63
2023-01-08T06:11:19.342Z,99499.88
2023-01-08T06:14:21.053Z,99492.28
2023-01-08T06:17:22.860Z,99489.44
2023-01-08T06:20:24.519Z,99491.09
2023-01-08T06:23:26.310Z,99493.66
2023-01-08T06:26:28.024Z,99491.91
2023-01-08T06:29:29.707Z,99493.78
2023-01-08T06:32:31.292Z,99489.69
2023-01-08T06:35:32.841Z,99494.84
2023-01-08T06:38:37.191Z,99499.31
2023-01-08T06:41:39.061Z,99506.34
2023-01-08T06:44:40.709Z,99499.44
2023-01-08T06:47:42.545Z,99494.84
2023-01-08T06:50:44.222Z,99499.44
2023-01-08T06:53:48.409Z,99503.09
2023-01-08T06:56:54.132Z,99510.25
2023-01-08T06:59:55.929Z,99508.63
2023-01-08T07:02:57.950Z,99515.03
2023-01-08T07:06:02.753Z,99520.16
2023-01-08T07:09:04.440Z,99521.94
2023-01-08T07:12:06.418Z,99526.28
2023-01-08T07:15:08.848Z,99531.44
2023-01-08T07:18:12.617Z,99535.75
2023-01-08T07:21:15.314Z,99539.16
2023-01-08T07:24:16.995Z,99537.94
2023-01-08T07:27:19.161Z,99533.03
2023-01-08T07:30:29.914Z,99541.59
2023-01-08T07:33:32.703Z,99547.53
2023-01-08T07:36:34.638Z,99551.19
2023-01-08T07:39:36.327Z,99557.19
2023-01-08T07:42:38.845Z,99567.47
2023-01-08T07:45:40.800Z,99569.91
2023-01-08T07:48:42.640Z,99563.69
2023-01-08T07:51:44.663Z,99562.25
2023-01-08T07:54:46.483Z,99562.50
2023-01-08T07:57:48.513Z,99560.63
2023-01-08T08:00:50.391Z,99561.56
2023-01-08T08:03:53.314Z,99554.53
2023-01-08T08:06:55.505Z,99554.53
2023-01-08T08:09:57.200Z,99554.16
2023-01-08T08:12:58.981Z,99556.28
2023-01-08T08:16:05.436Z,99554.53
2023-01-08T08:19:06.994Z,99545.28
2023-01-08T08:22:08.984Z,99552.91
2023-01-08T08:25:11.234Z,99565.78
2023-01-08T08:28:13.379Z,99553.81
2023-01-08T08:31:15.598Z,99562.69
2023-01-08T08:34:19.808Z,99557.69
2023-01-08T08:37:21.787Z,99554.69
2023-01-08T08:40:24.467Z,99539.81
2023-01-08T08:43:26.306Z,99544.84
2023-01-08T08:46:29.644Z,99535.91
2023-01-08T08:49:31.568Z,99534.84
2023-01-08T08:52:37.740Z,99534.84
2023-01-08T08:55:39.737Z,99532.94
2023-01-08T08:58:42.104Z,99529.03
2023-01-08T09:01:43.988Z,99528.78
2023-01-08T09:04:45.762Z,99519.84
2023-01-08T09:07:47.789Z,99514.03
2023-01-08T09:10:49.529Z,99509.06
2023-01-08T09:13:51.255Z,99509.06
2023-01-08T09:16:53.128Z,99506.97
2023-01-08T09:19:55.207Z,99497.94
2023-01-08T09:23:03.720Z,99491.53
2023-01-08T09:26:06.450Z,99494.69
2023-01-08T09:29:08.922Z,99477.28
2023-01-08T09:32:10.933Z,99473.63
2023-01-08T09:35:12.795Z,99477.53
2023-01-08T09:38:14.602Z,99481.06
2023-01-08T09:41:33.819Z,99471.84
2023-01-08T09:44:46.586Z,99479.31
2023-01-08T09:47:49.162Z,99468.72
2023-01-08T09:50:51.345Z,99464.53
2023-01-08T09:53:58.560Z,99452.31
2023-01-08T09:57:01.041Z,99447.16
2023-01-08T10:00:03.868Z,99442.78
2023-01-08T10:03:12.366Z,99435.75
2023-01-08T10:06:16.137Z,99444.13
2023-01-08T10:09:23.560Z,99425.75
2023-01-08T10:12:34.612Z,99424.22
2023-01-08T10:15:36.980Z,99415.19
2023-01-08T10:18:40.781Z,99417.91
2023-01-08T10:21:43.790Z,99411.25
2023-01-08T10:24:46.056Z,99406.13
2023-01-08T10:27:59.116Z,99396.47
2023-01-08T10:31:16.723Z,99380.94
2023-01-08T10:34:33.461Z,99389.31
2023-01-08T10:37:43.139Z,99395.31
2023-01-08T10:40:50.483Z,99400.97
2023-01-08T10:43:56.432Z,99395.56
2023-01-08T10:47:01.043Z,99382.47
2023-01-08T10:50:05.852Z,99391.72
2023-01-08T10:53:24.779Z,99391.16
2023-01-08T10:56:43.235Z,99386.41
2023-01-08T10:59:45.122Z,99376.00
2023-01-08T11:02:50.658Z,99383.13
2023-01-08T11:05:52.658Z,99373.03
2023-01-08T11:08:58.092Z,99374.69
2023-01-08T11:12:00.681Z,99371.53
2023-01-08T11:15:15.476Z,99365.91
2023-01-08T11:18:26.566Z,99359.56
2023-01-08T11:21:32.728Z,99357.41
2023-01-08T11:24:37.382Z,99349.56
2023-01-08T11:27:44.317Z,99350.41
2023-01-08T11:30:54.617Z,99337.09
2023-01-08T11:34:07.739Z,99338.03
2023-01-08T11:37:21.913Z,99337.31
2023-01-08T11:40:40.245Z,99328.22
2023-01-08T11:43:51.005Z,99327.84
2023-01-08T11:47:13.661Z,99318.44
2023-01-08T11:51:02.985Z,99321.53
2023-01-08T11:54:26.443Z,99314.97
2023-01-08T11:58:05.540Z,99312.63
2023-01-08T12:01:44.566Z,99314.03
2023-01-08T12:05:19.040Z,99301.56
2023-01-08T12:08:51.677Z,99286.88
2023-01-08T12:12:18.026Z,99291.25
2023-01-08T12:15:29.521Z,99282.97
2023-01-08T12:18:49.811Z,99276.00
2023-01-08T12:22:30.619Z,99275.84
2023-01-08T12:25:51.155Z,99262.06
2023-01-08T12:29:25.114Z,99255.38
2023-01-08T12:32:37.928Z,99258.75
2023-01-08T12:35:48.564Z,99256.63
2023-01-08T12:39:03.553Z,99259.69
2023-01-08T12:42:11.805Z,99249.81
2023-01-08T12:45:37.217Z,99243.19
2023-01-08T12:48:40.591Z,99240.13
2023-01-08T12:52:37.460Z,99243.84
2023-01-08T12:55:57.361Z,99243.72
2023-01-08T12:59:11.557Z,99227.00
2023-01-08T13:02:49.980Z,99223.75
2023-01-08T13:05:52.095Z,99211.44
2023-01-08T13:09:01.211Z,99211.59
2023-01-08T13:12:03.629Z,99210.44
2023-01-08T13:15:08.295Z,99199.72
2023-01-08T13:18:21.015Z,99205.22
2023-01-08T13:21:43.171Z,99198.22
2023-01-08T13:24:45.037Z,99189.59
2023-01-08T13:27:47.656Z,99189.59
2023-01-08T13:30:50.173Z,99182.16
2023-01-08T13:33:52.633Z,99187.44
2023-01-08T13:37:01.137Z,99178.00
2023-01-08T13:40:07.121Z,99170.22
2023-01-08T13:43:27.046Z,99164.94
2023-01-08T13:46:29.593Z,99150.66
2023-01-08T13:49:46.820Z,99143.72
2023-01-08T13:52:56.039Z,99139.38
2023-01-08T13:56:01.506Z,99138.44
2023-01-08T13:59:05.706Z,99146.69
2023-01-08T14:02:44.655Z,99154.19
2023-01-08T14:05:47.900Z,99151.91
2023-01-08T14:09:00.662Z,99150.75
2023-01-08T14:12:03.031Z,99143.06
2023-01-08T14:15:10.109Z,99144.22
2023-01-08T14:18:14.454Z,99150.53
2023-01-08T14:21:21.776Z,99146.13
2023-01-08T14:24:25.217Z,99159.38
2023-01-08T14:27:30.181Z,99155.72
2023-01-08T14:30:33.220Z,99150.03
2023-01-08T14:33:37.236Z,99155.44
2023-01-08T14:36:39.671Z,99153.38
2023-01-08T14:39:41.479Z,99149.47
2023-01-08T14:42:53.716Z,99140.59
2023-01-08T14:45:55.760Z,99131.69
2023-01-08T14:48:58.735Z,99127.56
2023-01-08T14:52:02.741Z,99125.56
2023-01-08T14:55:04.861Z,99128.66
2023-01-08T14:58:18.621Z,99142.16
2023-01-08T15:01:24.005Z,99129.75
2023-01-08T15:04:27.696Z,99134.25
2023-01-08T15:07:29.713Z,99137.38
2023-01-08T15:10:45.032Z,99129.94
2023-01-08T15:13:48.418Z,99132.56
2023-01-08T15:16:55.445Z,99127.69
2023-01-08T15:20:00.304Z,99136.66
2023-01-08T15:23:02.265Z,99124.63
2023-01-08T15:26:04.226Z,99124.47
2023-01-08T15:29:06.811Z,99123.28
2023-01-08T15:32:14.465Z,99127.38
2023-01-08T15:35:18.348Z,99133.91
2023-01-08T15:38:26.075Z,99135.97
2023-01-08T15:41:57.142Z,99128.34
2023-01-08T15:44:59.084Z,99127.28
2023-01-08T15:48:01.309Z,99125.38
2023-01-08T15:51:03.371Z,99119.28
2023-01-08T15:54:05.289Z,99125.91
2023-01-08T15:57:09.908Z,99141.75
2023-01-08T16:00:16.383Z,99141.59
2023-01-08T16:03:18.361Z,99134.97
2023-01-08T16:06:20.203Z,99124.28
2023-01-08T16:09:21.942Z,99130.25
2023-01-08T16:12:24.745Z,99127.53
2023-01-08T16:15:26.348Z,99121.44
2023-01-08T16:18:28.750Z,99113.47
2023-01-08T16:21:30.572Z,99117.66
2023-01-08T16:24:32.383Z,99116.00
2023-01-08T16:27:34.649Z,99120.75
2023-01-08T16:30:36.769Z,99111.66
2023-01-08T16:33:39.364Z,99122.22
2023-01-08T16:36:42.434Z,99113.13
2023-01-08T16:39:45.371Z,99113.41
2023-01-08T16:42:47.216Z,99107.81
2023-01-08T16:45:49.408Z,99099.53
2023-01-08T16:48:51.234Z,99089.38
2023-01-08T16:51:53.065Z,99094.09
2023-01-08T16:54:54.907Z,99100.59
2023-01-08T16:57:56.644Z,99117.41
2023-01-08T17:00:59.205Z,99115.22
2023-01-08T17:04:01.203Z,99095.03
2023-01-08T17:07:03.335Z,99092.81
2023-01-08T17:10:05.436Z,99087.97
2023-01-08T17:13:07.200Z,99100.84
2023-01-08T17:16:12.991Z,99125.50
2023-01-08T17:19:16.092Z,99128.16
2023-01-08T17:22:18.504Z,99144.97
2023-01-08T17:25:20.277Z,99134.25
2023-01-08T17:28:25.226Z,99131.78
2023-01-08T17:31:28.186Z,99138.41
2023-01-08T17:34:29.857Z,99156.03
2023-01-08T17:37:32.182Z,99160.63
2023-01-08T17:40:34.604Z,99138.41
2023-01-08T17:43:37.741Z,99156.69
2023-01-08T17:46:42.426Z,99161.00
2023-01-08T17:49:44.140Z,99168.81
2023-01-08T17:52:45.786Z,99168.59
2023-01-08T17:55:47.986Z,99167.31
2023-01-08T17:58:50.751Z,99165.88
2023-01-08T18:01:53.457Z,99175.97
2023-01-08T18:04:55.302Z,99178.09
2023-01-08T18:07:56.964Z,99174.13
2023-01-08T18:11:06.417Z,99176.84
2023-01-08T18:14:11.004Z,99170.03
2023-01-08T18:17:12.621Z,99177.03
2023-01-08T18:20:14.295Z,99165.41
2023-01-08T18:23:15.950Z,99164.09
2023-01-08T18:26:19.421Z,99172.88
2023-01-08T18:29:25.201Z,99164.34
2023-01-08T18:32:27.416Z,99162.69
2023-01-08T18:35:29.125Z,99154.56
2023-01-08T18:38:30.711Z,99152.41
2023-01-08T18:41:51.221Z,99159.41
2023-01-08T18:44:59.342Z,99148.91
2023-01-08T18:48:02.922Z,99152.88
2023-01-08T18:51:07.264Z,99150.41
2023-01-08T18:54:11.773Z,99149.31
2023-01-08T18:57:13.456Z,99152.81
2023-01-08T19:00:15.410Z,99146.16
2023-01-08T19:03:17.379Z,99140.47
2023-01-08T19:06:19.819Z,99148.41
2023-01-08T19:09:21.623Z,99133.00
2023-01-08T19:12:27.295Z,99141.66
2023-01-08T19:15:29.002Z,99129.88
2023-01-08T19:18:31.091Z,99130.38
2023-01-08T19:21:33.219Z,99122.69
2023-01-08T19:24:37.112Z,99116.28
2023-01-08T19:27:38.877Z,99113.97
2023-01-08T19:30:41.017Z,99123.41
2023-01-08T19:33:44.619Z,99112.56
2023-01-08T19:36:46.443Z,99112.56
2023-01-08T19:39:48.138Z,99112.81
2023-01-08T19:43:08.335Z,99110.41
2023-01-08T19:46:15.614Z,99113.00
2023-01-08T19:49:17.686Z,99103.34
2023-01-08T19:52:19.921Z,99102.00
2023-01-08T19:55:22.281Z,99105.78
2023-01-08T19:58:25.480Z,99100.41
2023-01-08T20:01:28.751Z,99092.13
2023-01-08T20:04:36.549Z,99088.31
2023-01-08T20:07:39.396Z,99092.47
2023-01-08T20:10:41.297Z,99087.59
2023-01-08T20:13:43.998Z,99087.59
2023-01-08T20:16:45.945Z,99080.06
2023-01-08T20:19:50.058Z,99071.66
2023-01-08T20:22:52.038Z,99080.72
2023-01-08T20:25:53.840Z,99075.59
2023-01-08T20:28:57.014Z,99064.66
2023-01-08T20:31:59.628Z,99066.28
2023-01-08T20:35:01.411Z,99064.22
2023-01-08T20:38:03.179Z,99061.75
2023-01-08T20:41:06.944Z,99068.03
2023-01-08T20:44:09.069Z,99057.31
2023-01-08T20:47:10.732Z,99059.28
2023-01-08T20:50:19.491Z,99051.94
2023-01-08T20:53:22.634Z,99050.09
2023-01-08T20:56:24.430Z,99040.81
2023-01-08T20:59:26.958Z,99041.97
2023-01-08T21:02:29.835Z,99031.72
2023-01-08T21:05:33.729Z,99027.38
2023-01-08T21:08:36.532Z,99036.16
2023-01-08T21:11:40.526Z,99038.03
2023-01-08T21:14:42.311Z,99031.84
2023-01-08T21:17:44.115Z,99025.53
2023-01-08T21:20:45.947Z,99026.47
2023-01-08T21:23:48.878Z,99027.16
2023-01-08T21:26:50.939Z,99027.34
2023-01-08T21:29:52.887Z,99019.84
2023-01-08T21:32:54.758Z,99010.59
2023-01-08T21:35:56.646Z,99011.28
2023-01-08T21:38:59.921Z,99002.81
2023-01-08T21:42:20.425Z,99001.34
2023-01-08T21:45:29.530Z,98995.72
2023-01-08T21:48:31.591Z,98981.13
2023-01-08T21:51:51.707Z,98969.47
2023-01-08T21:54:54.634Z,98972.56
2023-01-08T21:57:56.620Z,98969.06
2023-01-08T22:00:58.561Z,98963.22
2023-01-08T22:04:00.453Z,98958.38
2023-01-08T22:07:02.228Z,98953.06
2023-01-08T22:10:05.658Z,98943.72
2023-01-08T22:13:07.550Z,98933.47
2023-01-08T22:16:10.688Z,98929.44
2023-01-08T22:19:12.559Z,98920.97
2023-01-08T22:22:14.286Z,98922.75
2023-01-08T22:25:17.059Z,98915.03
2023-01-08T22:28:18.847Z,98906.91
2023-01-08T22:31:20.654Z,98906.09
2023-01-08T22:34:22.664Z,98902.31
2023-01-08T22:37:24.532Z,98889.88
2023-01-08T22:40:26.255Z,98883.41
2023-01-08T22:43:28.019Z,98873.38
2023-01-08T22:46:29.969Z,98869.31
2023-01-08T22:49:33.549Z,98859.56
2023-01-08T22:52:35.539Z,98853.75
2023-01-08T22:55:41.796Z,98848.47
2023-01-08T22:58:45.442Z,98849.53
2023-01-08T23:01:47.477Z,98858.59
2023-01-08T23:04:51.140Z,98857.22
2023-01-08T23:07:52.828Z,98857.09
2023-01-08T23:10:57.476Z,98849.28
2023-01-08T23:14:00.966Z,98858.34
2023-01-08T23:17:02.845Z,98858.09
2023-01-08T23:20:05.640Z,98854.06
2023-01-08T23:23:07.598Z,98844.47
2023-01-08T23:26:24.664Z,98851.88
2023-01-08T23:29:31.734Z,98845.25
2023-01-08T23:32:33.453Z,98826.09
2023-01-08T23:35:35.325Z,98825.28
2023-01-08T23:38:37.168Z,98831.53
2023-01-08T23:41:39.071Z,98821.16
2023-01-08T23:44:41.343Z,98819.94
2023-01-08T23:47:42.994Z,98819.41
2023-01-08T23:50:44.785Z,98808.16
2023-01-08T23:53:46.740Z,98811.81
2023-01-08T23:56:49.283Z,98800.19
2023-01-08T23:59:51.076Z,98801.53
